Time;durP1;ratioP1;P1;durP2;ratioP2;P2;SDS_P1;SDS_P2;PMS_P1;PMS_P2;Temp;Humidity;BMP_temperature;BMP_pressure;BME280_temperature;BME280_humidity;BME280_pressure;Samples;Min_cycle;Max_cycle;Signal;HPM_P1;HPM_P2
2023/06/25 00:01:15;;;;;;;14.00;7.72;;;17.10;99.90;;;;;;5056255;28;20233;-82
2023/06/25 00:03:43;;;;;;;9.00;7.47;;;17.20;99.90;;;;;;5056124;28;20278;-82
2023/06/25 00:06:10;;;;;;;9.88;7.40;;;17.20;99.90;;;;;;5058833;28;20718;-83
2023/06/25 00:08:37;;;;;;;8.88;6.07;;;17.30;99.90;;;;;;5055809;28;20207;-82
2023/06/25 00:11:03;;;;;;;8.95;6.40;;;17.20;99.90;;;;;;5057658;28;20282;-83
2023/06/25 00:13:30;;;;;;;11.38;6.72;;;17.00;99.90;;;;;;5057968;28;20402;-83
2023/06/25 00:15:57;;;;;;;9.43;6.93;;;16.80;99.90;;;;;;5056915;28;20214;-83
2023/06/25 00:18:26;;;;;;;10.85;7.20;;;16.90;99.90;;;;;;5058297;28;20207;-83
2023/06/25 00:20:55;;;;;;;9.02;7.15;;;17.10;99.90;;;;;;5057424;28;20230;-83
2023/06/25 00:23:22;;;;;;;10.45;7.45;;;17.10;99.90;;;;;;5056674;28;20217;-83
2023/06/25 00:25:49;;;;;;;12.73;7.90;;;17.20;99.90;;;;;;5058565;28;20309;-82
2023/06/25 00:28:16;;;;;;;10.27;7.55;;;17.10;99.90;;;;;;5055707;28;20211;-82
2023/06/25 00:30:43;;;;;;;10.00;7.82;;;17.20;99.90;;;;;;5055861;28;20765;-82
2023/06/25 00:33:09;;;;;;;10.52;8.20;;;17.30;99.90;;;;;;5058565;28;20247;-83
2023/06/25 00:36:06;;;;;;;10.43;8.07;;;17.20;99.90;;;;;;5055715;28;20218;-83
2023/06/25 00:38:33;;;;;;;10.60;8.27;;;17.20;99.90;;;;;;5054446;28;20210;-82
2023/06/25 00:41:00;;;;;;;9.50;8.15;;;17.20;99.90;;;;;;5057207;28;20237;-81
2023/06/25 00:43:27;;;;;;;12.52;8.73;;;17.20;99.90;;;;;;5056162;28;20203;-82
2023/06/25 00:45:54;;;;;;;9.35;8.20;;;17.20;99.90;;;;;;5054885;28;20245;-82
2023/06/25 00:48:21;;;;;;;9.80;7.78;;;17.20;99.90;;;;;;5057363;28;20225;-81
2023/06/25 00:50:49;;;;;;;11.50;7.03;;;17.20;99.90;;;;;;5055274;28;20276;-82
2023/06/25 00:53:17;;;;;;;11.85;8.48;;;17.20;99.90;;;;;;5055316;28;20210;-82
2023/06/25 00:55:51;;;;;;;10.15;7.22;;;17.20;99.90;;;;;;5057928;28;20202;-82
2023/06/25 00:58:22;;;;;;;9.90;7.47;;;17.00;99.90;;;;;;5054795;28;20215;-82
2023/06/25 01:00:49;;;;;;;7.68;6.20;;;17.10;99.90;;;;;;5055019;28;20234;-81
2023/06/25 01:03:26;;;;;;;11.48;7.95;;;16.90;99.90;;;;;;5057744;28;20203;-82
2023/06/25 01:06:04;;;;;;;12.18;9.10;;;16.90;99.90;;;;;;5054922;28;20213;-82
2023/06/25 01:08:35;;;;;;;12.38;9.25;;;17.00;99.90;;;;;;5054590;28;20687;-82
2023/06/25 01:11:04;;;;;;;12.75;9.30;;;17.00;99.90;;;;;;5056641;28;20229;-82
2023/06/25 01:13:31;;;;;;;13.73;9.30;;;17.00;99.90;;;;;;5054754;28;20214;-82
2023/06/25 01:15:58;;;;;;;9.30;7.40;;;16.90;99.90;;;;;;5054453;28;20211;-82
2023/06/25 01:18:25;;;;;;;10.63;7.13;;;16.60;99.90;;;;;;5056979;28;20741;-82
2023/06/25 01:20:53;;;;;;;12.52;7.35;;;16.40;99.90;;;;;;5054159;28;20257;-82
2023/06/25 01:23:22;;;;;;;14.65;8.27;;;16.30;99.90;;;;;;5054215;28;20217;-82
2023/06/25 01:25:49;;;;;;;10.70;8.25;;;16.40;99.90;;;;;;5056435;28;20521;-81
2023/06/25 01:28:19;;;;;;;13.13;8.00;;;16.40;99.90;;;;;;5054261;28;20229;-82
2023/06/25 01:30:48;;;;;;;12.95;9.02;;;16.50;99.90;;;;;;5054888;28;20222;-81
2023/06/25 01:33:19;;;;;;;11.77;8.15;;;16.40;99.90;;;;;;5056982;28;20206;-81
2023/06/25 01:35:46;;;;;;;13.30;9.27;;;16.30;99.90;;;;;;5016457;28;1073014;-82
2023/06/25 01:38:13;;;;;;;13.80;9.38;;;16.30;99.90;;;;;;5054426;28;20195;-82
2023/06/25 01:40:41;;;;;;;13.77;8.43;;;16.40;99.90;;;;;;5058177;28;20682;-82
2023/06/25 01:43:08;;;;;;;12.48;8.88;;;16.50;99.90;;;;;;5054484;28;20238;-82
2023/06/25 01:45:35;;;;;;;12.85;8.25;;;16.40;99.90;;;;;;5055620;28;20217;-82
2023/06/25 01:48:02;;;;;;;13.05;8.65;;;16.40;99.90;;;;;;5058099;28;20237;-83
2023/06/25 01:50:29;;;;;;;11.60;8.48;;;16.60;99.90;;;;;;5054636;28;20229;-83
2023/06/25 01:52:55;;;;;;;11.48;9.40;;;16.60;99.90;;;;;;5056532;28;20289;-83
2023/06/25 01:55:22;;;;;;;10.75;8.57;;;16.60;99.90;;;;;;5056531;28;20242;-83
2023/06/25 01:57:50;;;;;;;11.70;8.20;;;16.30;99.90;;;;;;5055334;28;20221;-83
2023/06/25 02:00:17;;;;;;;9.57;7.82;;;16.30;99.90;;;;;;5056818;28;20750;-82
2023/06/25 02:02:44;;;;;;;14.48;8.60;;;16.10;99.90;;;;;;5055946;28;20230;-83
2023/06/25 02:05:12;;;;;;;12.25;8.48;;;16.10;99.90;;;;;;5054426;28;20211;-83
2023/06/25 02:07:39;;;;;;;11.23;9.05;;;16.20;99.90;;;;;;5056214;28;20438;-83
2023/06/25 02:10:06;;;;;;;12.07;9.10;;;16.40;99.90;;;;;;5056153;28;20297;-83
2023/06/25 02:12:33;;;;;;;11.98;9.40;;;16.40;99.90;;;;;;5058409;28;20221;-83
2023/06/25 02:15:02;;;;;;;10.88;8.32;;;16.50;99.90;;;;;;5060180;28;20199;-83
2023/06/25 02:17:29;;;;;;;14.23;8.70;;;16.40;99.90;;;;;;5058088;28;20214;-83
2023/06/25 02:19:55;;;;;;;9.93;7.80;;;16.40;99.90;;;;;;5058154;28;20209;-82
2023/06/25 02:22:22;;;;;;;11.48;8.23;;;16.40;99.90;;;;;;5059562;28;20234;-83
2023/06/25 02:24:49;;;;;;;10.20;7.75;;;16.40;99.90;;;;;;5058090;28;20207;-83
2023/06/25 02:27:16;;;;;;;7.65;6.80;;;16.30;99.90;;;;;;5057485;28;20504;-83
2023/06/25 02:29:42;;;;;;;8.93;6.75;;;16.20;99.90;;;;;;5060606;28;20229;-83
2023/06/25 02:32:11;;;;;;;10.68;8.38;;;16.20;99.90;;;;;;5058040;28;20269;-83
2023/06/25 02:34:37;;;;;;;10.45;8.30;;;16.30;99.90;;;;;;5058362;28;20249;-83
2023/06/25 02:37:13;;;;;;;11.98;8.90;;;16.30;99.90;;;;;;5060954;28;20202;-83
2023/06/25 02:39:40;;;;;;;12.90;9.10;;;16.30;99.90;;;;;;5057811;28;20206;-83
2023/06/25 02:42:07;;;;;;;11.18;8.75;;;16.40;99.90;;;;;;5056977;28;20233;-83
2023/06/25 02:44:34;;;;;;;11.73;8.73;;;16.30;99.90;;;;;;5059879;28;20199;-83
2023/06/25 02:47:01;;;;;;;11.02;8.57;;;16.30;99.90;;;;;;5057806;28;20217;-83
2023/06/25 02:49:29;;;;;;;12.10;8.48;;;16.30;99.90;;;;;;5059386;28;20561;-83
2023/06/25 02:51:56;;;;;;;13.48;8.68;;;16.20;99.90;;;;;;5060437;28;20699;-82
2023/06/25 02:54:23;;;;;;;10.90;8.25;;;16.20;99.90;;;;;;5059769;28;20199;-83
2023/06/25 02:56:50;;;;;;;14.00;8.80;;;16.20;99.90;;;;;;5047896;28;20223;-82
2023/06/25 02:59:17;;;;;;;14.77;9.02;;;16.20;99.90;;;;;;5040849;28;20628;-83
2023/06/25 03:01:44;;;;;;;11.00;8.13;;;16.20;99.90;;;;;;5052159;28;20230;-83
2023/06/25 03:04:11;;;;;;;10.27;7.82;;;16.20;99.90;;;;;;5060391;28;20199;-83
2023/06/25 03:06:39;;;;;;;10.60;7.30;;;16.20;99.90;;;;;;5060721;28;20195;-82
2023/06/25 03:09:07;;;;;;;16.75;9.20;;;16.30;99.90;;;;;;5058468;28;20207;-83
2023/06/25 03:11:34;;;;;;;10.38;7.88;;;16.40;99.90;;;;;;5058116;28;20223;-83
2023/06/25 03:14:01;;;;;;;10.68;8.15;;;16.40;99.90;;;;;;5059157;28;20290;-83
2023/06/25 03:16:28;;;;;;;11.75;8.57;;;16.10;99.90;;;;;;5059954;28;20257;-82
2023/06/25 03:18:55;;;;;;;13.43;8.52;;;16.20;99.90;;;;;;5059611;28;20241;-83
2023/06/25 03:21:22;;;;;;;9.95;8.10;;;16.20;99.90;;;;;;5058428;28;20237;-83
2023/06/25 03:23:50;;;;;;;11.65;8.52;;;16.30;99.90;;;;;;5058657;28;20604;-82
2023/06/25 03:26:17;;;;;;;11.68;8.38;;;16.30;99.90;;;;;;5059097;28;20199;-83
2023/06/25 03:28:44;;;;;;;12.10;8.38;;;16.30;99.90;;;;;;5058509;28;20265;-83
2023/06/25 03:31:11;;;;;;;8.18;7.18;;;16.30;99.90;;;;;;5058589;28;20653;-83
2023/06/25 03:33:38;;;;;;;8.73;6.65;;;16.20;99.90;;;;;;5058575;28;20689;-84
2023/06/25 03:36:05;;;;;;;8.15;4.85;;;15.90;99.90;;;;;;5058338;28;20221;-84
2023/06/25 03:38:32;;;;;;;8.38;6.75;;;15.80;99.90;;;;;;5059904;28;20290;-83
2023/06/25 03:41:00;;;;;;;9.80;8.05;;;15.70;99.90;;;;;;5060517;28;20313;-83
2023/06/25 03:43:27;;;;;;;14.05;9.02;;;15.90;99.90;;;;;;5059586;28;20199;-83
2023/06/25 03:45:54;;;;;;;14.50;9.18;;;15.90;99.90;;;;;;5060138;28;20259;-83
2023/06/25 03:48:21;;;;;;;12.13;8.45;;;15.90;99.90;;;;;;5059287;28;20263;-83
2023/06/25 03:50:48;;;;;;;15.88;9.32;;;16.00;99.90;;;;;;5056522;28;20305;-83
2023/06/25 03:53:15;;;;;;;15.88;9.23;;;16.10;99.90;;;;;;5058237;28;20294;-84
2023/06/25 03:55:42;;;;;;;12.57;9.73;;;16.20;99.90;;;;;;5052624;28;20202;-83
2023/06/25 03:58:12;;;;;;;12.25;8.77;;;16.30;99.90;;;;;;5062977;28;20259;-83
2023/06/25 04:00:41;;;;;;;11.75;9.05;;;16.30;99.90;;;;;;5057551;28;20227;-83
2023/06/25 04:03:08;;;;;;;12.02;8.82;;;16.40;99.90;;;;;;5063312;28;20685;-83
2023/06/25 04:05:35;;;;;;;11.15;8.55;;;16.70;99.90;;;;;;5068656;28;20561;-84
2023/06/25 04:08:02;;;;;;;12.35;8.52;;;16.70;99.90;;;;;;5058637;28;20214;-83
2023/06/25 04:10:29;;;;;;;11.13;8.20;;;16.80;99.90;;;;;;5054752;28;20220;-83
2023/06/25 04:12:56;;;;;;;11.45;8.57;;;17.00;1.00;;;;;;5060329;28;20681;-83
2023/06/25 04:15:24;;;;;;;9.98;7.65;;;17.90;1.00;;;;;;5058063;28;20210;-83
2023/06/25 04:17:51;;;;;;;12.32;7.72;;;18.80;1.00;;;;;;5058819;28;20210;-83
2023/06/25 04:20:19;;;;;;;9.82;7.22;;;19.20;99.90;;;;;;5059333;28;20283;-83
2023/06/25 04:22:46;;;;;;;10.45;7.10;;;19.50;99.90;;;;;;5056421;28;20276;-83
2023/06/25 04:25:12;;;;;;;11.15;7.10;;;18.50;99.90;;;;;;5062660;28;20205;-82
2023/06/25 04:27:40;;;;;;;12.07;8.13;;;17.90;99.90;;;;;;5048557;28;20298;-82
2023/06/25 04:30:08;;;;;;;11.82;7.10;;;17.60;1.00;;;;;;5054377;28;20290;-83
2023/06/25 04:32:37;;;;;;;9.05;7.25;;;17.50;99.90;;;;;;5055771;28;20245;-83
2023/06/25 04:35:04;;;;;;;9.95;7.60;;;17.40;99.90;;;;;;5057591;28;20206;-84
2023/06/25 04:37:31;;;;;;;11.65;8.02;;;17.30;99.90;;;;;;5065370;28;20211;-82
2023/06/25 04:39:59;;;;;;;11.48;7.18;;;17.20;99.90;;;;;;5062886;28;20214;-84
2023/06/25 04:42:28;;;;;;;10.30;7.68;;;17.30;99.90;;;;;;5059340;28;20225;-83
2023/06/25 04:44:56;;;;;;;11.20;7.65;;;17.40;99.90;;;;;;5057704;28;20226;-83
2023/06/25 04:47:23;;;;;;;11.70;8.02;;;17.30;99.90;;;;;;5057401;28;20207;-83
2023/06/25 04:49:52;;;;;;;11.73;7.55;;;17.30;99.90;;;;;;5054151;28;20709;-82
2023/06/25 04:52:19;;;;;;;12.75;8.02;;;17.40;99.90;;;;;;5057490;28;20353;-82
2023/06/25 04:54:46;;;;;;;13.07;7.60;;;17.60;99.90;;;;;;5057307;28;20321;-82
2023/06/25 04:57:13;;;;;;;13.27;7.93;;;17.60;99.90;;;;;;5058330;28;20203;-83
2023/06/25 04:59:40;;;;;;;11.05;7.97;;;17.70;99.90;;;;;;5058156;28;20205;-83
2023/06/25 05:02:07;;;;;;;9.85;8.02;;;17.60;99.90;;;;;;5057962;28;20237;-83
2023/06/25 05:04:34;;;;;;;12.07;8.32;;;17.70;99.90;;;;;;5057796;28;20210;-82
2023/06/25 05:07:02;;;;;;;10.80;7.85;;;17.80;99.90;;;;;;5056784;28;20220;-82
2023/06/25 05:09:29;;;;;;;11.15;7.70;;;17.70;99.90;;;;;;5056434;28;20202;-83
2023/06/25 05:11:55;;;;;;;10.73;7.65;;;17.90;99.90;;;;;;5056726;28;20229;-82
2023/06/25 05:14:22;;;;;;;10.57;7.25;;;17.90;99.90;;;;;;5056226;28;20298;-82
2023/06/25 05:16:49;;;;;;;13.18;7.25;;;17.90;99.90;;;;;;5056671;28;20199;-82
2023/06/25 05:19:16;;;;;;;11.00;7.63;;;18.10;99.90;;;;;;5056697;28;20203;-82
2023/06/25 05:21:43;;;;;;;9.52;7.20;;;18.20;99.90;;;;;;5056657;28;20222;-83
2023/06/25 05:24:11;;;;;;;8.63;7.20;;;18.40;99.90;;;;;;5056742;28;20191;-83
2023/06/25 05:26:38;;;;;;;11.25;7.30;;;18.50;99.90;;;;;;5057018;28;20309;-83
2023/06/25 05:29:05;;;;;;;9.63;7.43;;;18.80;99.90;;;;;;5057105;28;20203;-83
2023/06/25 05:31:32;;;;;;;10.63;7.63;;;19.20;99.90;;;;;;5066945;28;20214;-83
2023/06/25 05:33:58;;;;;;;9.50;6.90;;;19.20;99.90;;;;;;5077748;28;20209;-83
2023/06/25 05:36:25;;;;;;;11.68;6.82;;;19.20;99.90;;;;;;5077469;28;20277;-83
2023/06/25 05:38:52;;;;;;;18.63;13.90;;;19.40;99.90;;;;;;5077330;28;20284;-82
2023/06/25 05:41:20;;;;;;;34.65;27.98;;;19.80;99.90;;;;;;5075939;28;20228;-83
2023/06/25 05:43:47;;;;;;;10.60;7.85;;;19.80;99.90;;;;;;5077112;28;20205;-81
2023/06/25 05:46:14;;;;;;;10.35;6.78;;;19.70;99.90;;;;;;5074795;28;20233;-81
2023/06/25 05:48:41;;;;;;;9.00;7.00;;;19.90;99.90;;;;;;5067522;28;20206;-83
2023/06/25 05:51:08;;;;;;;7.38;6.35;;;20.00;99.90;;;;;;5061978;28;20230;-81
2023/06/25 05:53:39;;;;;;;8.82;6.38;;;20.20;99.90;;;;;;5063216;28;20202;-82
2023/06/25 05:56:06;;;;;;;10.10;5.70;;;20.20;99.90;;;;;;5066941;28;20705;-82
2023/06/25 05:58:35;;;;;;;7.60;6.07;;;20.30;99.90;;;;;;5059083;28;20199;-83
2023/06/25 06:01:02;;;;;;;9.38;6.10;;;20.40;99.90;;;;;;5056415;28;20240;-81
2023/06/25 06:03:29;;;;;;;8.55;6.78;;;20.30;99.90;;;;;;5056427;28;20219;-81
2023/06/25 06:05:57;;;;;;;8.20;6.20;;;20.20;99.90;;;;;;5056015;28;20230;-82
2023/06/25 06:08:24;;;;;;;7.90;6.50;;;19.90;99.90;;;;;;5057418;28;20266;-82
2023/06/25 06:10:51;;;;;;;9.25;6.45;;;20.20;99.90;;;;;;5057578;28;20229;-83
2023/06/25 06:13:21;;;;;;;8.60;6.35;;;20.50;99.90;;;;;;5050867;28;20207;-82
2023/06/25 06:15:49;;;;;;;8.70;6.28;;;21.10;99.90;;;;;;5035857;28;20203;-83
2023/06/25 06:18:16;;;;;;;8.27;5.93;;;21.00;99.90;;;;;;5036735;28;20259;-83
2023/06/25 06:20:43;;;;;;;7.28;5.63;;;21.10;99.90;;;;;;5036007;28;20227;-84
2023/06/25 06:23:09;;;;;;;8.35;6.35;;;20.90;99.90;;;;;;5036583;28;20222;-84
2023/06/25 06:25:36;;;;;;;8.18;5.88;;;20.90;99.90;;;;;;5037412;28;20682;-81
2023/06/25 06:28:03;;;;;;;7.10;5.63;;;20.80;99.90;;;;;;5037791;28;20221;-81
2023/06/25 06:30:30;;;;;;;11.55;5.85;;;20.90;99.90;;;;;;5037568;28;20227;-82
2023/06/25 06:32:58;;;;;;;11.00;6.43;;;20.90;99.90;;;;;;5036565;28;20653;-83
2023/06/25 06:35:25;;;;;;;9.48;5.90;;;20.90;99.90;;;;;;5036664;28;20222;-83
2023/06/25 06:37:52;;;;;;;12.30;8.23;;;21.00;99.90;;;;;;5035299;28;20210;-83
2023/06/25 06:40:19;;;;;;;8.43;6.03;;;21.10;99.90;;;;;;5036689;28;20327;-80
2023/06/25 06:42:45;;;;;;;8.57;6.28;;;21.00;99.90;;;;;;5036487;28;20237;-81
2023/06/25 06:45:12;;;;;;;8.63;6.53;;;21.20;99.90;;;;;;5037285;28;20214;-85
2023/06/25 06:47:39;;;;;;;7.07;6.38;;;20.90;99.90;;;;;;5043789;28;20237;-80
2023/06/25 06:50:08;;;;;;;8.65;6.07;;;21.20;99.90;;;;;;5047833;28;20209;-83
2023/06/25 06:52:35;;;;;;;8.68;5.93;;;21.30;99.90;;;;;;5057976;28;20203;-82
2023/06/25 06:55:02;;;;;;;7.15;5.82;;;21.50;99.90;;;;;;5056923;28;20211;-82
2023/06/25 06:57:29;;;;;;;9.05;5.40;;;21.60;99.90;;;;;;5060157;28;20722;-84
2023/06/25 06:59:59;;;;;;;6.63;5.70;;;21.50;99.90;;;;;;5060059;28;20227;-82
2023/06/25 07:02:26;;;;;;;7.80;5.78;;;21.70;99.90;;;;;;5059594;28;20744;-84
2023/06/25 07:04:52;;;;;;;7.65;5.95;;;21.70;99.90;;;;;;5059438;28;20203;-85
2023/06/25 07:07:21;;;;;;;7.72;5.65;;;21.80;99.90;;;;;;5065981;28;20209;-84
2023/06/25 07:09:51;;;;;;;7.97;5.70;;;21.90;99.90;;;;;;5061298;28;20206;-84
2023/06/25 07:12:18;;;;;;;7.38;5.68;;;21.90;99.90;;;;;;5062874;28;20222;-81
2023/06/25 07:14:45;;;;;;;7.95;5.57;;;22.10;99.90;;;;;;5062816;28;20286;-85
2023/06/25 07:17:12;;;;;;;9.50;5.60;;;22.10;99.90;;;;;;5064319;28;20206;-85
2023/06/25 07:19:39;;;;;;;10.15;5.55;;;22.20;99.90;;;;;;5068934;28;20242;-84
2023/06/25 07:22:06;;;;;;;6.10;5.50;;;22.30;99.90;;;;;;5066888;28;20219;-85
2023/06/25 07:24:34;;;;;;;7.95;5.43;;;22.40;99.90;;;;;;5060104;28;20214;-84
2023/06/25 07:27:01;;;;;;;6.15;4.97;;;22.40;99.90;;;;;;5060779;28;20209;-83
2023/06/25 07:29:29;;;;;;;6.35;5.18;;;22.50;99.90;;;;;;5075743;28;20619;-85
2023/06/25 07:31:56;;;;;;;6.22;4.97;;;22.60;99.90;;;;;;5059347;28;20602;-83
2023/06/25 07:34:23;;;;;;;9.20;5.18;;;22.70;99.90;;;;;;5059389;28;20241;-84
2023/06/25 07:36:50;;;;;;;5.78;5.00;;;22.70;99.90;;;;;;5059709;28;20191;-84
2023/06/25 07:39:25;;;;;;;7.55;5.32;;;22.70;99.90;;;;;;5059297;28;20238;-84
2023/06/25 07:41:54;;;;;;;6.22;4.82;;;22.80;99.90;;;;;;5038982;28;20711;-83
2023/06/25 07:44:20;;;;;;;6.40;4.90;;;22.80;99.90;;;;;;5048645;28;20282;-82
2023/06/25 07:46:47;;;;;;;5.75;5.00;;;23.00;99.90;;;;;;5061931;28;20213;-82
2023/06/25 07:49:14;;;;;;;7.88;5.57;;;23.10;99.90;;;;;;5060423;28;20215;-82
2023/06/25 07:51:43;;;;;;;7.35;4.95;;;23.20;99.90;;;;;;5059954;28;20305;-85
2023/06/25 07:54:10;;;;;;;6.20;4.85;;;23.30;99.90;;;;;;5066349;28;20201;-81
2023/06/25 07:56:37;;;;;;;6.38;5.28;;;23.30;99.90;;;;;;5072052;28;20285;-84
2023/06/25 07:59:05;;;;;;;6.97;5.40;;;23.40;99.90;;;;;;5054408;28;20196;-84
2023/06/25 08:01:32;;;;;;;7.45;5.13;;;23.40;99.90;;;;;;5042834;28;20238;-85
2023/06/25 08:03:59;;;;;;;8.02;5.45;;;23.40;99.90;;;;;;5040898;28;20228;-82
2023/06/25 08:06:26;;;;;;;6.10;4.88;;;23.50;99.90;;;;;;5039848;28;20207;-82
2023/06/25 08:08:52;;;;;;;7.60;5.50;;;23.60;99.90;;;;;;5042348;28;20241;-83
2023/06/25 08:11:19;;;;;;;7.43;5.63;;;23.70;99.90;;;;;;5057947;28;20223;-81
2023/06/25 08:13:46;;;;;;;5.72;5.13;;;23.80;99.90;;;;;;5057219;28;20199;-84
2023/06/25 08:16:14;;;;;;;6.50;5.20;;;23.80;99.90;;;;;;5056427;28;20294;-82
2023/06/25 08:18:41;;;;;;;5.95;5.10;;;23.80;99.90;;;;;;5056576;28;20205;-81
2023/06/25 08:21:08;;;;;;;7.75;4.88;;;24.00;99.90;;;;;;5065092;28;20223;-83
2023/06/25 08:23:35;;;;;;;8.32;5.22;;;23.90;99.90;;;;;;5058108;28;20272;-85
2023/06/25 08:26:02;;;;;;;6.28;5.05;;;24.00;99.90;;;;;;5062899;28;20294;-82
2023/06/25 08:28:29;;;;;;;5.43;4.90;;;24.00;99.90;;;;;;5059050;28;20202;-83
2023/06/25 08:30:56;;;;;;;6.13;5.30;;;24.00;99.90;;;;;;5074141;28;20218;-81
2023/06/25 08:33:24;;;;;;;5.20;4.70;;;24.10;99.90;;;;;;5064208;28;20202;-83
2023/06/25 08:35:51;;;;;;;6.70;4.80;;;24.20;99.90;;;;;;5056467;28;20251;-83
2023/06/25 08:38:19;;;;;;;6.03;4.75;;;24.30;99.90;;;;;;5058285;28;20205;-83
2023/06/25 08:40:47;;;;;;;5.95;5.05;;;24.40;99.90;;;;;;5069221;28;20636;-83
2023/06/25 08:43:14;;;;;;;5.30;4.80;;;24.50;99.90;;;;;;5065418;28;20241;-83
2023/06/25 08:45:42;;;;;;;5.18;4.65;;;24.50;99.90;;;;;;5059167;28;20572;-82
2023/06/25 08:48:12;;;;;;;6.68;5.07;;;24.80;99.90;;;;;;5058080;28;20214;-81
2023/06/25 08:50:43;;;;;;;6.55;5.18;;;25.00;99.90;;;;;;5067278;28;20246;-83
2023/06/25 08:53:10;;;;;;;6.60;5.43;;;25.30;99.90;;;;;;5074787;28;20202;-83
2023/06/25 08:55:38;;;;;;;6.57;5.10;;;25.50;99.90;;;;;;5057943;28;20210;-81
2023/06/25 08:58:05;;;;;;;7.45;4.97;;;25.80;99.90;;;;;;5053283;28;20289;-84
2023/06/25 09:00:32;;;;;;;7.60;5.20;;;26.00;99.90;;;;;;5063085;28;20585;-82
2023/06/25 09:02:58;;;;;;;7.85;5.25;;;26.50;99.90;;;;;;5058650;28;20241;-83
2023/06/25 09:05:26;;;;;;;7.63;5.55;;;27.00;99.90;;;;;;5058283;28;20229;-83
2023/06/25 09:07:55;;;;;;;6.18;4.88;;;26.80;99.90;;;;;;5056640;28;20302;-83
2023/06/25 09:10:22;;;;;;;5.70;5.18;;;27.20;99.90;;;;;;5052823;28;20227;-81
2023/06/25 09:12:50;;;;;;;6.50;5.25;;;27.10;99.90;;;;;;5057899;28;20572;-82
2023/06/25 09:15:20;;;;;;;6.65;5.05;;;27.60;99.90;;;;;;5070584;28;20226;-83
2023/06/25 09:17:48;;;;;;;5.90;4.85;;;27.40;99.90;;;;;;5059024;28;20199;-83
2023/06/25 09:20:15;;;;;;;5.53;4.95;;;28.10;99.90;;;;;;5058381;28;20249;-83
2023/06/25 09:22:51;;;;;;;5.50;5.00;;;28.10;99.90;;;;;;5058252;28;20223;-81
2023/06/25 09:25:22;;;;;;;5.10;4.57;;;28.10;99.90;;;;;;5057909;28;20294;-81
2023/06/25 09:27:49;;;;;;;7.80;5.03;;;27.60;99.90;;;;;;5064997;28;20264;-80
2023/06/25 09:30:18;;;;;;;7.13;4.50;;;28.10;99.90;;;;;;5059149;28;20194;-83
2023/06/25 09:32:52;;;;;;;7.82;6.03;;;28.30;99.90;;;;;;5056825;28;20210;-84
2023/06/25 09:35:20;;;;;;;7.30;4.72;;;28.40;99.90;;;;;;5059673;28;20217;-85
2023/06/25 09:37:47;;;;;;;5.63;4.82;;;28.50;99.90;;;;;;5059182;28;20238;-83
2023/06/25 09:40:14;;;;;;;5.07;4.53;;;28.50;99.90;;;;;;5062214;28;20609;-83
2023/06/25 09:42:44;;;;;;;5.30;4.80;;;28.60;99.90;;;;;;5064765;28;20377;-84
2023/06/25 09:45:14;;;;;;;5.03;4.53;;;28.80;99.90;;;;;;5055317;28;20625;-84
2023/06/25 09:47:43;;;;;;;5.32;4.82;;;28.80;99.90;;;;;;5056796;28;20179;-81
2023/06/25 09:50:17;;;;;;;5.32;4.68;;;28.60;99.90;;;;;;5061274;28;20218;-81
2023/06/25 09:52:45;;;;;;;7.00;4.55;;;29.30;99.90;;;;;;5061370;28;20231;-82
2023/06/25 09:55:13;;;;;;;5.75;5.15;;;29.50;99.90;;;;;;5055992;28;20210;-83
2023/06/25 09:57:43;;;;;;;5.15;4.65;;;29.60;99.90;;;;;;5056744;28;20262;-82
2023/06/25 10:00:12;;;;;;;6.85;4.68;;;29.80;99.90;;;;;;5035294;28;20260;-84
2023/06/25 10:02:40;;;;;;;4.60;4.10;;;30.00;99.90;;;;;;5053153;28;20569;-82
2023/06/25 10:05:07;;;;;;;5.25;4.75;;;29.90;99.90;;;;;;5055898;28;20226;-82
2023/06/25 10:07:34;;;;;;;5.78;5.00;;;29.20;99.90;;;;;;5055913;28;20227;-83
2023/06/25 10:10:01;;;;;;;5.65;5.05;;;29.20;99.90;;;;;;5055924;28;20237;-82
2023/06/25 10:12:33;;;;;;;5.35;4.85;;;28.60;99.90;;;;;;5057195;28;20647;-83
2023/06/25 10:15:04;;;;;;;5.28;4.50;;;29.00;99.90;;;;;;5056010;28;20241;-83
2023/06/25 10:17:31;;;;;;;5.40;4.90;;;28.80;99.90;;;;;;5042653;28;20205;-81
2023/06/25 10:19:59;;;;;;;4.70;4.30;;;28.30;99.90;;;;;;5064868;28;20213;-85
2023/06/25 10:22:27;;;;;;;6.10;4.55;;;28.20;99.90;;;;;;5056246;28;20655;-82
2023/06/25 10:24:55;;;;;;;5.30;4.80;;;28.70;99.90;;;;;;5066829;28;20686;-81
2023/06/25 10:27:27;;;;;;;5.85;5.22;;;29.10;99.90;;;;;;5061261;28;20254;-79
2023/06/25 10:29:55;;;;;;;8.63;5.32;;;29.20;99.90;;;;;;5056474;28;20219;-83
2023/06/25 10:32:24;;;;;;;6.35;4.88;;;29.20;99.90;;;;;;5060735;28;20231;-82
2023/06/25 10:34:55;;;;;;;7.35;5.43;;;28.70;99.90;;;;;;5060723;28;20206;-84
2023/06/25 10:37:28;;;;;;;5.05;4.60;;;28.60;99.90;;;;;;5061246;28;20687;-81
2023/06/25 10:40:02;;;;;;;5.88;4.82;;;28.80;99.90;;;;;;5061131;28;21825;-81
2023/06/25 10:42:30;;;;;;;5.20;4.70;;;29.30;99.90;;;;;;5067139;28;20222;-82
2023/06/25 10:44:57;;;;;;;6.47;5.28;;;28.90;99.90;;;;;;5059428;28;20218;-81
2023/06/25 10:47:25;;;;;;;5.35;4.88;;;29.00;99.90;;;;;;5064028;28;20694;-82
2023/06/25 10:49:52;;;;;;;6.85;5.45;;;29.20;99.90;;;;;;5069253;28;20202;-82
2023/06/25 10:52:19;;;;;;;6.07;5.45;;;29.20;99.90;;;;;;5064494;28;20313;-80
2023/06/25 10:54:46;;;;;;;6.10;5.28;;;29.20;99.90;;;;;;5060005;28;20199;-82
2023/06/25 10:57:14;;;;;;;5.20;4.72;;;29.40;99.90;;;;;;5055150;28;20195;-80
2023/06/25 10:59:43;;;;;;;5.68;5.13;;;30.00;99.90;;;;;;5063157;28;20203;-79
2023/06/25 11:02:14;;;;;;;5.80;5.20;;;30.10;99.90;;;;;;5067088;28;20687;-81
2023/06/25 11:04:43;;;;;;;7.30;4.93;;;30.70;99.90;;;;;;5056032;28;20208;-82
2023/06/25 11:07:12;;;;;;;5.85;5.35;;;29.80;99.90;;;;;;5065004;28;20554;-83
2023/06/25 11:09:39;;;;;;;5.82;4.80;;;29.70;99.90;;;;;;5059092;28;20634;-83
2023/06/25 11:12:07;;;;;;;5.72;4.82;;;30.20;99.90;;;;;;5068180;28;20645;-79
2023/06/25 11:14:34;;;;;;;6.25;5.65;;;30.50;99.90;;;;;;5059399;28;20206;-81
2023/06/25 11:17:01;;;;;;;5.82;5.32;;;29.70;99.90;;;;;;5058439;28;20651;-83
2023/06/25 11:19:30;;;;;;;5.55;5.05;;;30.00;99.90;;;;;;5067590;28;20226;-81
2023/06/25 11:21:58;;;;;;;5.55;4.65;;;29.60;99.90;;;;;;5062378;28;20226;-79
2023/06/25 11:24:26;;;;;;;5.20;4.80;;;29.70;99.90;;;;;;5063095;28;20313;-80
2023/06/25 11:26:58;;;;;;;6.88;5.20;;;30.20;99.90;;;;;;5059447;28;20210;-81
2023/06/25 11:29:36;;;;;;;5.80;5.22;;;30.40;99.90;;;;;;5061079;28;20214;-82
2023/06/25 11:32:05;;;;;;;6.45;5.38;;;31.00;99.90;;;;;;5060366;28;20223;-81
2023/06/25 11:34:33;;;;;;;5.40;4.90;;;31.10;99.90;;;;;;5065619;28;20191;-82
2023/06/25 11:37:11;;;;;;;5.57;5.07;;;31.10;99.90;;;;;;5062237;28;20289;-83
2023/06/25 11:39:45;;;;;;;5.55;5.05;;;30.60;99.90;;;;;;5070673;28;20190;-84
2023/06/25 11:42:16;;;;;;;6.10;5.50;;;30.70;99.90;;;;;;5072895;28;20222;-83
2023/06/25 11:44:43;;;;;;;6.03;5.20;;;30.20;99.90;;;;;;5058934;28;20599;-79
2023/06/25 11:47:11;;;;;;;5.10;4.55;;;30.20;99.90;;;;;;5058714;28;20217;-83
2023/06/25 11:49:39;;;;;;;5.75;5.25;;;30.30;99.90;;;;;;5058946;28;20294;-83
2023/06/25 11:52:06;;;;;;;5.70;5.10;;;30.20;99.90;;;;;;5057914;28;20219;-83
2023/06/25 11:54:34;;;;;;;7.75;6.15;;;30.80;99.90;;;;;;5067190;28;20563;-82
2023/06/25 11:57:01;;;;;;;8.35;6.15;;;31.10;99.90;;;;;;5076473;28;20278;-84
2023/06/25 11:59:29;;;;;;;6.03;5.40;;;31.10;99.90;;;;;;5049100;28;20200;-81
2023/06/25 12:01:56;;;;;;;5.38;4.97;;;30.40;99.90;;;;;;5067687;28;21168;-83
2023/06/25 12:04:23;;;;;;;6.32;5.00;;;29.90;99.90;;;;;;5058237;28;20219;-81
2023/06/25 12:06:49;;;;;;;6.13;5.05;;;30.60;99.90;;;;;;5058733;28;20217;-82
2023/06/25 12:09:16;;;;;;;5.40;4.90;;;31.20;99.90;;;;;;5058291;28;20214;-80
2023/06/25 12:11:46;;;;;;;6.05;5.38;;;31.30;99.90;;;;;;5062224;28;20229;-82
2023/06/25 12:14:13;;;;;;;6.65;5.50;;;31.40;99.90;;;;;;5052826;28;20274;-82
2023/06/25 12:16:40;;;;;;;6.55;5.53;;;31.20;99.90;;;;;;5065086;28;20210;-83
2023/06/25 12:19:07;;;;;;;5.20;4.70;;;31.10;99.90;;;;;;5059225;28;20624;-81
2023/06/25 12:21:34;;;;;;;5.65;5.07;;;30.80;99.80;;;;;;5060934;28;20222;-82
2023/06/25 12:24:01;;;;;;;5.65;5.10;;;31.10;99.90;;;;;;5044754;28;20224;-82
2023/06/25 12:26:27;;;;;;;4.70;4.30;;;30.90;91.10;;;;;;5058894;28;20195;-83
2023/06/25 12:28:56;;;;;;;5.57;5.07;;;31.00;99.90;;;;;;5060585;28;20209;-84
2023/06/25 12:31:23;;;;;;;5.88;4.97;;;31.10;94.90;;;;;;5048714;28;20223;-83
2023/06/25 12:33:49;;;;;;;9.55;8.23;;;30.50;91.30;;;;;;5062581;28;20202;-82
2023/06/25 12:36:16;;;;;;;6.25;5.38;;;30.50;98.00;;;;;;5045866;28;20215;-82
2023/06/25 12:38:43;;;;;;;4.93;4.47;;;30.80;99.90;;;;;;5052458;28;20203;-83
2023/06/25 12:41:10;;;;;;;5.90;5.35;;;30.50;77.40;;;;;;5057109;28;20227;-81
2023/06/25 12:43:37;;;;;;;6.05;5.45;;;30.60;99.90;;;;;;5056413;28;20286;-82
2023/06/25 12:46:05;;;;;;;5.40;4.90;;;30.80;99.90;;;;;;5064101;28;20272;-82